Aviation Digital Data Service (ADDS)

Output produced by METARs form (1403 UTC 23 January 2019)
found at http://www.aviationweather.gov/metar/data/
 
METAR text: AYPY 231300Z 33004KT 320V360 9999 FEW040 26/24 Q1008
Conditions at: AYPY (PORT MORESBY INT, PG) observed 1300 UTC 23 January 2019
Temperature: 26.0°C (79°F)
Dewpoint: 24.0°C (75°F) [RH = 89%]
Pressure (altimeter): 29.76 inches Hg (1008.0 mb)
Winds: from the NNW (330 degrees) at 5 MPH (4 knots; 2.1 m/s)
Visibility: 6 or more miles (10+ km)
Ceiling: at least 12,000 feet AGL
Clouds: few clouds at 4000 feet AGL
Weather: no significant weather observed at this time

METAR text: AYPY 231100Z 02004KT 9999 SCT120 27/24 Q1008
Conditions at: AYPY (PORT MORESBY INT, PG) observed 1100 UTC 23 January 2019
Temperature: 27.0°C (81°F)
Dewpoint: 24.0°C (75°F) [RH = 84%]
Pressure (altimeter): 29.76 inches Hg (1008.0 mb)
Winds: from the NNE (20 degrees) at 5 MPH (4 knots; 2.1 m/s)
Visibility: 6 or more miles (10+ km)
Ceiling: at least 12,000 feet AGL
Clouds: scattered clouds at 12000 feet AGL
Weather: no significant weather observed at this time

METAR text: AYPY 231000Z 12002KT 9999 FEW140 BKN160 29/25 Q1008
Conditions at: AYPY (PORT MORESBY INT, PG) observed 1000 UTC 23 January 2019
Temperature: 29.0°C (84°F)
Dewpoint: 25.0°C (77°F) [RH = 79%]
Pressure (altimeter): 29.76 inches Hg (1008.0 mb)
Winds: from the ESE (120 degrees) at 2 MPH (2 knots; 1.0 m/s)
Visibility: 6 or more miles (10+ km)
Ceiling: 16000 feet AGL
Clouds: few clouds at 14000 feet AGL
broken clouds at 16000 feet AGL
Weather: no significant weather observed at this time

METAR text: AYPY 230800Z 25008KT 9999 SCT050 30/22 Q1007
Conditions at: AYPY (PORT MORESBY INT, PG) observed 0800 UTC 23 January 2019
Temperature: 30.0°C (86°F)
Dewpoint: 22.0°C (72°F) [RH = 62%]
Pressure (altimeter): 29.73 inches Hg (1007.0 mb)
Winds: from the WSW (250 degrees) at 9 MPH (8 knots; 4.1 m/s)
Visibility: 6 or more miles (10+ km)
Ceiling: at least 12,000 feet AGL
Clouds: scattered clouds at 5000 feet AGL
Weather: no significant weather observed at this time

METAR text: AYPY 230700Z 27010KT 9999 FEW050 31/22 Q1005 RMK: BUILD UPS TO N
Conditions at: AYPY (PORT MORESBY INT, PG) observed 0700 UTC 23 January 2019
Temperature: 31.0°C (88°F)
Dewpoint: 22.0°C (72°F) [RH = 59%]
Pressure (altimeter): 29.68 inches Hg (1005.0 mb)
Winds: from the W (270 degrees) at 12 MPH (10 knots; 5.1 m/s)
Visibility: 6 or more miles (10+ km)
Ceiling: at least 12,000 feet AGL
Clouds: few clouds at 5000 feet AGL
Weather: no significant weather observed at this time

METAR text: AYPY 230600Z 26010KT 9999 FEW050 31/23 Q1005
Conditions at: AYPY (PORT MORESBY INT, PG) observed 0600 UTC 23 January 2019
Temperature: 31.0°C (88°F)
Dewpoint: 23.0°C (73°F) [RH = 63%]
Pressure (altimeter): 29.68 inches Hg (1005.0 mb)
Winds: from the W (260 degrees) at 12 MPH (10 knots; 5.1 m/s)
Visibility: 6 or more miles (10+ km)
Ceiling: at least 12,000 feet AGL
Clouds: few clouds at 5000 feet AGL
Weather: no significant weather observed at this time

METAR text: AYPY 230500Z 26010KT 9999 FEW050 33/23 Q1005 RMK: BUILD UPS TO N
Conditions at: AYPY (PORT MORESBY INT, PG) observed 0500 UTC 23 January 2019
Temperature: 33.0°C (91°F)
Dewpoint: 23.0°C (73°F) [RH = 56%]
Pressure (altimeter): 29.68 inches Hg (1005.0 mb)
Winds: from the W (260 degrees) at 12 MPH (10 knots; 5.1 m/s)
Visibility: 6 or more miles (10+ km)
Ceiling: at least 12,000 feet AGL
Clouds: few clouds at 5000 feet AGL
Weather: no significant weather observed at this time

METAR text: AYPY 230400Z 29020KT 9999 FEW050 33/23 Q1006 RMK: BUILD UPS TO N AND E
Conditions at: AYPY (PORT MORESBY INT, PG) observed 0400 UTC 23 January 2019
Temperature: 33.0°C (91°F)
Dewpoint: 23.0°C (73°F) [RH = 56%]
Pressure (altimeter): 29.70 inches Hg (1006.0 mb)
Winds: from the WNW (290 degrees) at 23 MPH (20 knots; 10.3 m/s)
Visibility: 6 or more miles (10+ km)
Ceiling: at least 12,000 feet AGL
Clouds: few clouds at 5000 feet AGL
Weather: no significant weather observed at this time

METAR text: AYPY 230300Z 29015KT 9999 FEW030 SCT050 32/22 Q1006
Conditions at: AYPY (PORT MORESBY INT, PG) observed 0300 UTC 23 January 2019
Temperature: 32.0°C (90°F)
Dewpoint: 22.0°C (72°F) [RH = 56%]
Pressure (altimeter): 29.70 inches Hg (1006.0 mb)
Winds: from the WNW (290 degrees) at 17 MPH (15 knots; 7.7 m/s)
Visibility: 6 or more miles (10+ km)
Ceiling: at least 12,000 feet AGL
Clouds: few clouds at 3000 feet AGL
scattered clouds at 5000 feet AGL
Weather: no significant weather observed at this time

METAR text: AYPY 230200Z 31010KT 9999 FEW030 SCT050 31/24 Q1007
Conditions at: AYPY (PORT MORESBY INT, PG) observed 0200 UTC 23 January 2019
Temperature: 31.0°C (88°F)
Dewpoint: 24.0°C (75°F) [RH = 66%]
Pressure (altimeter): 29.73 inches Hg (1007.0 mb)
Winds: from the NW (310 degrees) at 12 MPH (10 knots; 5.1 m/s)
Visibility: 6 or more miles (10+ km)
Ceiling: at least 12,000 feet AGL
Clouds: few clouds at 3000 feet AGL
scattered clouds at 5000 feet AGL
Weather: no significant weather observed at this time

METAR text: AYPY 230100Z 33010KT 9999 RERA FEW030 SCT050 29/24 Q1008
Conditions at: AYPY (PORT MORESBY INT, PG) observed 0100 UTC 23 January 2019
Temperature: 29.0°C (84°F)
Dewpoint: 24.0°C (75°F) [RH = 74%]
Pressure (altimeter): 29.76 inches Hg (1008.0 mb)
Winds: from the NNW (330 degrees) at 12 MPH (10 knots; 5.1 m/s)
Visibility: 6 or more miles (10+ km)
Ceiling: at least 12,000 feet AGL
Clouds: few clouds at 3000 feet AGL
scattered clouds at 5000 feet AGL
Weather: no significant weather observed at this time

METAR text: AYPY 230000Z 33005KT 9999 RERA SCT050 26/24 Q1009
Conditions at: AYPY (PORT MORESBY INT, PG) observed 0000 UTC 23 January 2019
Temperature: 26.0°C (79°F)
Dewpoint: 24.0°C (75°F) [RH = 89%]
Pressure (altimeter): 29.79 inches Hg (1009.0 mb)
Winds: from the NNW (330 degrees) at 6 MPH (5 knots; 2.6 m/s)
Visibility: 6 or more miles (10+ km)
Ceiling: at least 12,000 feet AGL
Clouds: scattered clouds at 5000 feet AGL
Weather: no significant weather observed at this time

METAR text: AYPY 222300Z 34010KT 9999 RERA FEW010 SCT050 26/23 Q1009
Conditions at: AYPY (PORT MORESBY INT, PG) observed 2300 UTC 22 January 2019
Temperature: 26.0°C (79°F)
Dewpoint: 23.0°C (73°F) [RH = 84%]
Pressure (altimeter): 29.79 inches Hg (1009.0 mb)
Winds: from the NNW (340 degrees) at 12 MPH (10 knots; 5.1 m/s)
Visibility: 6 or more miles (10+ km)
Ceiling: at least 12,000 feet AGL
Clouds: few clouds at 1000 feet AGL
scattered clouds at 5000 feet AGL
Weather: no significant weather observed at this time

METAR text: AYPY 222200Z 34010KT 9999 SCT070 25/23 Q1010 RMK:SHRA IN AREA
Conditions at: AYPY (PORT MORESBY INT, PG) observed 2200 UTC 22 January 2019
Temperature: 25.0°C (77°F)
Dewpoint: 23.0°C (73°F) [RH = 89%]
Pressure (altimeter): 29.82 inches Hg (1010.0 mb)
Winds: from the NNW (340 degrees) at 12 MPH (10 knots; 5.1 m/s)
Visibility: 6 or more miles (10+ km)
Ceiling: at least 12,000 feet AGL
Clouds: scattered clouds at 7000 feet AGL
Weather: no significant weather observed at this time

METAR text: AYPY 222100Z 34007KT 6000M BKN006 BKN025 24/23 Q1010 RMK/SHRA/LOW CLOUD IN AREA
Conditions at: AYPY (PORT MORESBY INT, PG) observed 2100 UTC 22 January 2019
Temperature: 24.0°C (75°F)
Dewpoint: 23.0°C (73°F) [RH = 94%]
Pressure (altimeter): 29.82 inches Hg (1010.0 mb)
Winds: from the NNW (340 degrees) at 8 MPH (7 knots; 3.6 m/s)
Visibility: 4 miles ( 6 km)
Ceiling: 600 feet AGL
Clouds: broken clouds at 600 feet AGL
broken clouds at 2500 feet AGL
Weather: no significant weather observed at this time

METAR text: AYPY 222000Z 33012KT 6000M SCT010 BKN030 24/24 Q1009 RMK/SHRA/LOW CLOUD IN AREA
Conditions at: AYPY (PORT MORESBY INT, PG) observed 2000 UTC 22 January 2019
Temperature: 24.0°C (75°F)
Dewpoint: 24.0°C (75°F) [RH = 100%]
Pressure (altimeter): 29.79 inches Hg (1009.0 mb)
Winds: from the NNW (330 degrees) at 14 MPH (12 knots; 6.2 m/s)
Visibility: 4 miles ( 6 km)
Ceiling: 3000 feet AGL
Clouds: scattered clouds at 1000 feet AGL
broken clouds at 3000 feet AGL
Weather: no significant weather observed at this time

METAR text: AYPY 221700Z 33005KT 9999 FEW020 SCT050 26/25 Q1008 RMK/ RASH IN AREA
Conditions at: AYPY (PORT MORESBY INT, PG) observed 1700 UTC 22 January 2019
Temperature: 26.0°C (79°F)
Dewpoint: 25.0°C (77°F) [RH = 94%]
Pressure (altimeter): 29.76 inches Hg (1008.0 mb)
Winds: from the NNW (330 degrees) at 6 MPH (5 knots; 2.6 m/s)
Visibility: 6 or more miles (10+ km)
Ceiling: at least 12,000 feet AGL
Clouds: few clouds at 2000 feet AGL
scattered clouds at 5000 feet AGL
Weather: no significant weather observed at this time

METAR text: AYPY 221500Z 30003KT 9999 SCT040 26/25 Q1008
Conditions at: AYPY (PORT MORESBY INT, PG) observed 1500 UTC 22 January 2019
Temperature: 26.0°C (79°F)
Dewpoint: 25.0°C (77°F) [RH = 94%]
Pressure (altimeter): 29.76 inches Hg (1008.0 mb)
Winds: from the WNW (300 degrees) at 3 MPH (3 knots; 1.5 m/s)
Visibility: 6 or more miles (10+ km)
Ceiling: at least 12,000 feet AGL
Clouds: scattered clouds at 4000 feet AGL
Weather: no significant weather observed at this time

METAR text: AYPY 221200Z 13005KT 9999 FEW050 27/25 Q1009
Conditions at: AYPY (PORT MORESBY INT, PG) observed 1200 UTC 22 January 2019
Temperature: 27.0°C (81°F)
Dewpoint: 25.0°C (77°F) [RH = 89%]
Pressure (altimeter): 29.79 inches Hg (1009.0 mb)
Winds: from the SE (130 degrees) at 6 MPH (5 knots; 2.6 m/s)
Visibility: 6 or more miles (10+ km)
Ceiling: at least 12,000 feet AGL
Clouds: few clouds at 5000 feet AGL
Weather: no significant weather observed at this time

METAR text: AYPY 221100Z VRB03KT 9999 SCT085 BKN100 27/25 Q1009
Conditions at: AYPY (PORT MORESBY INT, PG) observed 1100 UTC 22 January 2019
Temperature: 27.0°C (81°F)
Dewpoint: 25.0°C (77°F) [RH = 89%]
Pressure (altimeter): 29.79 inches Hg (1009.0 mb)
Winds: variable direction winds at 3 MPH (3 knots; 1.5 m/s)
Visibility: 6 or more miles (10+ km)
Ceiling: 10000 feet AGL
Clouds: scattered clouds at 8500 feet AGL
broken clouds at 10000 feet AGL
Weather: no significant weather observed at this time

METAR text: AYPY 221000Z VRB04KT 9999 BKN080 27/25 Q1009
Conditions at: AYPY (PORT MORESBY INT, PG) observed 1000 UTC 22 January 2019
Temperature: 27.0°C (81°F)
Dewpoint: 25.0°C (77°F) [RH = 89%]
Pressure (altimeter): 29.79 inches Hg (1009.0 mb)
Winds: variable direction winds at 5 MPH (4 knots; 2.1 m/s)
Visibility: 6 or more miles (10+ km)
Ceiling: 8000 feet AGL
Clouds: broken clouds at 8000 feet AGL
Weather: no significant weather observed at this time

METAR text: AYPY 220800Z 16005KT 9999 SCT050 28/25 Q1007 RMK/DIST BUILD UPS TO E
Conditions at: AYPY (PORT MORESBY INT, PG) observed 0800 UTC 22 January 2019
Temperature: 28.0°C (82°F)
Dewpoint: 25.0°C (77°F) [RH = 84%]
Pressure (altimeter): 29.73 inches Hg (1007.0 mb)
Winds: from the SSE (160 degrees) at 6 MPH (5 knots; 2.6 m/s)
Visibility: 6 or more miles (10+ km)
Ceiling: at least 12,000 feet AGL
Clouds: scattered clouds at 5000 feet AGL
Weather: no significant weather observed at this time

METAR text: AYPY 220700Z 14010KT 9999 FEW015 SCT050 29/25 Q1006 RMK:DIST BUILD UPS TO E
Conditions at: AYPY (PORT MORESBY INT, PG) observed 0700 UTC 22 January 2019
Temperature: 29.0°C (84°F)
Dewpoint: 25.0°C (77°F) [RH = 79%]
Pressure (altimeter): 29.70 inches Hg (1006.0 mb)
Winds: from the SE (140 degrees) at 12 MPH (10 knots; 5.1 m/s)
Visibility: 6 or more miles (10+ km)
Ceiling: at least 12,000 feet AGL
Clouds: few clouds at 1500 feet AGL
scattered clouds at 5000 feet AGL
Weather: no significant weather observed at this time

METAR text: AYPY 220600Z 15010KT 9999 FEW015 SCT035 SCT050 29/25 Q1006 RMK/DIST BUILD UPS FM NW TO E
Conditions at: AYPY (PORT MORESBY INT, PG) observed 0600 UTC 22 January 2019
Temperature: 29.0°C (84°F)
Dewpoint: 25.0°C (77°F) [RH = 79%]
Pressure (altimeter): 29.70 inches Hg (1006.0 mb)
Winds: from the SSE (150 degrees) at 12 MPH (10 knots; 5.1 m/s)
Visibility: 6 or more miles (10+ km)
Ceiling: at least 12,000 feet AGL
Clouds: few clouds at 1500 feet AGL
scattered clouds at 3500 feet AGL
scattered clouds at 5000 feet AGL
Weather: no significant weather observed at this time

METAR text: AYPY 220500Z 19010KT 9999 SCT035 SCT050 31/25 Q1006 RMK/DIST BUILD UPS FM N TO E
Conditions at: AYPY (PORT MORESBY INT, PG) observed 0500 UTC 22 January 2019
Temperature: 31.0°C (88°F)
Dewpoint: 25.0°C (77°F) [RH = 71%]
Pressure (altimeter): 29.70 inches Hg (1006.0 mb)
Winds: from the S (190 degrees) at 12 MPH (10 knots; 5.1 m/s)
Visibility: 6 or more miles (10+ km)
Ceiling: at least 12,000 feet AGL
Clouds: scattered clouds at 3500 feet AGL
scattered clouds at 5000 feet AGL
Weather: no significant weather observed at this time

METAR text: AYPY 220400Z 18010KT 9999 SCT035 SCT050 31/25 Q1006 RMK:DIST BUILD UPS TO E
Conditions at: AYPY (PORT MORESBY INT, PG) observed 0400 UTC 22 January 2019
Temperature: 31.0°C (88°F)
Dewpoint: 25.0°C (77°F) [RH = 71%]
Pressure (altimeter): 29.70 inches Hg (1006.0 mb)
Winds: from the S (180 degrees) at 12 MPH (10 knots; 5.1 m/s)
Visibility: 6 or more miles (10+ km)
Ceiling: at least 12,000 feet AGL
Clouds: scattered clouds at 3500 feet AGL
scattered clouds at 5000 feet AGL
Weather: no significant weather observed at this time

METAR text: AYPY 220300Z 18009KT 9999 FEW035 SCT050 31/25 Q1006 RMK/DIST BUILD UPS TO E
Conditions at: AYPY (PORT MORESBY INT, PG) observed 0300 UTC 22 January 2019
Temperature: 31.0°C (88°F)
Dewpoint: 25.0°C (77°F) [RH = 71%]
Pressure (altimeter): 29.70 inches Hg (1006.0 mb)
Winds: from the S (180 degrees) at 10 MPH (9 knots; 4.6 m/s)
Visibility: 6 or more miles (10+ km)
Ceiling: at least 12,000 feet AGL
Clouds: few clouds at 3500 feet AGL
scattered clouds at 5000 feet AGL
Weather: no significant weather observed at this time

Forecast for: AYPY (PORT MORESBY INT, PG)
Text: TAF AYPY 231111Z 2312/2412 00000KT 9999 -RADZ SCT016 SCT035 BKN130
Forecast period: 1200 UTC 23 January 2019 to 1200 UTC 24 January 2019
Forecast type: FROM: standard forecast or significant change
Winds: calm
Visibility: 6 or more miles 10+ km)
Ceiling: 13000 feet AGL
Clouds: scattered clouds at 1600 feet AGL
scattered clouds at 3500 feet AGL
broken clouds at 13000 feet AGL
Weather: -RA -DZ  (light rain, light drizzle)